createdAt,value
2019-05-02T00:00:00.315Z,8.50
2019-05-02T00:02:32.789Z,7.65
2019-05-02T00:05:07.268Z,7.70
2019-05-02T00:07:39.084Z,7.12
2019-05-02T00:10:14.049Z,7.97
2019-05-02T00:12:45.759Z,5.53
2019-05-02T00:15:18.838Z,7.15
2019-05-02T00:17:50.179Z,6.05
2019-05-02T00:20:25.876Z,5.28
2019-05-02T00:22:54.686Z,5.55
2019-05-02T00:25:26.143Z,11.08
2019-05-02T00:27:57.636Z,5.47
2019-05-02T00:30:30.005Z,7.62
2019-05-02T00:33:02.030Z,5.65
2019-05-02T00:35:33.347Z,10.75
2019-05-02T00:38:04.772Z,6.17
2019-05-02T00:40:36.107Z,5.70
2019-05-02T00:43:08.540Z,8.25
2019-05-02T00:45:39.940Z,6.78
2019-05-02T00:48:19.300Z,8.15
2019-05-02T00:50:52.523Z,7.62
2019-05-02T00:53:24.026Z,7.65
2019-05-02T00:55:55.294Z,7.03
2019-05-02T00:58:27.195Z,10.93
2019-05-02T01:01:13.082Z,8.03
2019-05-02T01:03:47.229Z,8.98
2019-05-02T01:06:18.980Z,8.28
2019-05-02T01:08:50.221Z,5.45
2019-05-02T01:11:21.550Z,8.38
2019-05-02T01:13:55.663Z,5.65
2019-05-02T01:16:25.848Z,6.03
2019-05-02T01:18:57.090Z,6.55
2019-05-02T01:21:28.390Z,6.35
2019-05-02T01:24:02.962Z,5.25
2019-05-02T01:26:40.980Z,8.35
2019-05-02T01:29:13.930Z,10.15
2019-05-02T01:31:58.950Z,7.25
2019-05-02T01:34:34.986Z,9.18
2019-05-02T01:37:21.879Z,8.65
2019-05-02T01:39:53.351Z,10.53
2019-05-02T01:42:24.682Z,8.65
2019-05-02T01:44:56.012Z,8.43
2019-05-02T01:47:29.062Z,9.05
2019-05-02T01:50:00.287Z,7.05
2019-05-02T01:52:31.645Z,10.05
2019-05-02T01:55:02.984Z,9.73
2019-05-02T01:57:34.329Z,9.58
2019-05-02T02:00:11.440Z,9.73
2019-05-02T02:02:44.529Z,10.03
2019-05-02T02:05:15.864Z,10.85
2019-05-02T02:07:50.774Z,10.00
2019-05-02T02:10:21.087Z,13.30
2019-05-02T02:13:03.335Z,10.60
2019-05-02T02:15:28.966Z,11.10
2019-05-02T02:17:58.528Z,15.50
2019-05-02T02:20:35.298Z,11.08
2019-05-02T02:23:10.176Z,14.30
2019-05-02T02:25:42.817Z,14.98
2019-05-02T02:28:18.634Z,10.23
2019-05-02T02:30:49.972Z,11.20
2019-05-02T02:33:22.230Z,10.85
2019-05-02T02:35:55.939Z,10.35
2019-05-02T02:38:33.534Z,22.73
2019-05-02T02:41:06.496Z,10.82
2019-05-02T02:43:35.212Z,13.50
2019-05-02T02:46:21.153Z,11.40
2019-05-02T02:48:52.440Z,9.40
2019-05-02T02:51:26.240Z,10.05
2019-05-02T02:54:03.665Z,11.63
2019-05-02T02:56:34.409Z,14.03
2019-05-02T02:59:02.649Z,13.35
2019-05-02T03:01:33.883Z,13.65
2019-05-02T03:04:09.432Z,10.65
2019-05-02T03:06:44.583Z,11.95
2019-05-02T03:09:11.432Z,8.45
2019-05-02T03:11:47.078Z,8.93
2019-05-02T03:14:25.975Z,17.75
2019-05-02T03:16:57.415Z,12.68
2019-05-02T03:19:28.701Z,9.58
2019-05-02T03:22:03.782Z,11.63
2019-05-02T03:24:36.545Z,13.40
2019-05-02T03:27:06.048Z,16.10
2019-05-02T03:29:44.293Z,12.78
2019-05-02T03:32:16.083Z,14.85
2019-05-02T03:34:48.295Z,16.55
2019-05-02T03:37:17.844Z,22.22
2019-05-02T03:39:57.540Z,22.77
2019-05-02T03:42:23.031Z,27.27
2019-05-02T03:44:56.153Z,27.13
2019-05-02T03:47:27.649Z,29.92
2019-05-02T03:49:59.502Z,32.30
2019-05-02T03:52:36.773Z,29.45
2019-05-02T03:55:05.743Z,32.38
2019-05-02T03:57:41.664Z,33.85
2019-05-02T04:00:13.887Z,34.95
2019-05-02T04:02:44.092Z,29.05
2019-05-02T04:05:15.537Z,39.00
2019-05-02T04:07:47.859Z,31.40
2019-05-02T04:10:44.221Z,29.82
2019-05-02T04:13:15.907Z,33.40
2019-05-02T04:15:47.436Z,35.78
2019-05-02T04:18:20.678Z,30.23
2019-05-02T04:20:52.637Z,30.10
2019-05-02T04:23:27.870Z,27.30
2019-05-02T04:25:57.184Z,24.95
2019-05-02T04:28:28.547Z,56.13
2019-05-02T04:30:59.929Z,25.85
2019-05-02T04:33:34.679Z,29.77
2019-05-02T04:36:14.209Z,20.05
2019-05-02T04:38:44.307Z,18.77
2019-05-02T04:41:10.825Z,15.10
2019-05-02T04:43:54.596Z,15.28
2019-05-02T04:46:26.934Z,15.40
2019-05-02T04:48:52.938Z,14.05
2019-05-02T04:51:27.677Z,15.48
2019-05-02T04:53:58.820Z,17.07
2019-05-02T04:56:30.491Z,17.62
2019-05-02T04:59:08.314Z,15.48
2019-05-02T05:01:43.419Z,17.90
2019-05-02T05:04:08.352Z,22.87
2019-05-02T05:06:46.658Z,18.73
2019-05-02T05:09:15.073Z,21.82
2019-05-02T05:11:48.213Z,32.40
2019-05-02T05:14:19.821Z,24.57
2019-05-02T05:16:55.443Z,30.08
2019-05-02T05:19:29.959Z,23.75
2019-05-02T05:22:04.490Z,35.38
2019-05-02T05:24:32.741Z,56.18
2019-05-02T05:27:05.447Z,23.92
2019-05-02T05:29:39.429Z,22.25
2019-05-02T05:32:10.781Z,21.20
2019-05-02T05:34:43.272Z,21.25
2019-05-02T05:37:14.798Z,22.22
2019-05-02T05:39:48.694Z,23.65
2019-05-02T05:42:23.300Z,19.77
2019-05-02T05:44:53.968Z,19.17
2019-05-02T05:47:27.313Z,26.90
2019-05-02T05:50:00.964Z,27.52
2019-05-02T05:52:33.024Z,26.33
2019-05-02T05:55:07.825Z,23.05
2019-05-02T05:57:39.134Z,20.45
2019-05-02T06:00:15.985Z,21.15
2019-05-02T06:02:53.971Z,19.42
2019-05-02T06:05:17.452Z,25.25
2019-05-02T06:07:49.031Z,23.40
2019-05-02T06:10:20.497Z,22.62
2019-05-02T06:12:51.882Z,22.77
2019-05-02T06:15:23.304Z,23.25
2019-05-02T06:17:54.783Z,21.97
2019-05-02T06:20:30.645Z,20.80
2019-05-02T06:22:59.944Z,19.35
2019-05-02T06:25:36.115Z,21.40
2019-05-02T06:28:06.780Z,19.85
2019-05-02T06:30:38.465Z,21.02
2019-05-02T06:33:09.978Z,17.80
2019-05-02T06:35:43.386Z,21.82
2019-05-02T06:38:14.812Z,19.90
2019-05-02T06:40:46.679Z,17.00
2019-05-02T06:43:18.351Z,18.07
2019-05-02T06:45:49.774Z,19.00
2019-05-02T06:48:21.310Z,21.07
2019-05-02T06:50:52.714Z,16.42
2019-05-02T06:53:24.256Z,18.27
2019-05-02T06:55:55.766Z,27.70
2019-05-02T06:58:27.237Z,18.60
2019-05-02T07:00:59.161Z,17.60
2019-05-02T07:03:31.609Z,15.68
2019-05-02T07:06:04.544Z,24.07
2019-05-02T07:08:36.266Z,18.42
2019-05-02T07:11:07.573Z,15.23
2019-05-02T07:13:42.194Z,17.98
2019-05-02T07:16:24.023Z,15.68
2019-05-02T07:18:50.041Z,14.55
2019-05-02T07:21:23.551Z,27.35
2019-05-02T07:23:55.213Z,17.87
2019-05-02T07:26:26.811Z,21.17
2019-05-02T07:28:58.231Z,18.77
2019-05-02T07:31:29.821Z,21.07
2019-05-02T07:34:02.782Z,15.53
2019-05-02T07:36:36.391Z,16.70
2019-05-02T07:39:10.944Z,19.15
2019-05-02T07:44:12.699Z,19.32
2019-05-02T07:46:51.572Z,22.37
2019-05-02T07:49:17.349Z,22.02
2019-05-02T07:51:52.437Z,18.65
2019-05-02T07:54:24.702Z,53.70
2019-05-02T07:56:55.100Z,18.40
2019-05-02T07:59:27.572Z,25.55
2019-05-02T08:01:58.982Z,79.97
2019-05-02T08:04:30.368Z,27.50
2019-05-02T08:07:04.115Z,23.70
2019-05-02T08:09:39.256Z,23.70
2019-05-02T08:12:10.511Z,25.88
2019-05-02T08:14:42.918Z,33.08
2019-05-02T08:17:17.117Z,24.63
2019-05-02T08:19:47.483Z,23.00
2019-05-02T08:22:18.911Z,24.05
2019-05-02T08:24:50.278Z,27.42
2019-05-02T08:27:23.374Z,30.12
2019-05-02T08:29:54.816Z,31.73
2019-05-02T08:32:26.214Z,28.95
2019-05-02T08:34:57.663Z,24.32
2019-05-02T08:37:29.178Z,21.07
2019-05-02T08:40:00.661Z,21.87
2019-05-02T08:42:33.762Z,18.55
2019-05-02T08:45:08.536Z,20.45
2019-05-02T08:47:40.528Z,17.65
2019-05-02T08:50:12.102Z,21.85
2019-05-02T08:52:47.904Z,15.13
2019-05-02T08:55:19.410Z,17.67
2019-05-02T08:57:50.911Z,17.62
2019-05-02T09:00:22.426Z,21.80
2019-05-02T09:02:57.152Z,19.05
2019-05-02T09:05:26.930Z,26.68
2019-05-02T09:07:58.451Z,23.95
2019-05-02T09:10:30.554Z,22.30
2019-05-02T09:13:02.624Z,20.27
2019-05-02T09:15:35.304Z,23.60
2019-05-02T09:18:07.384Z,24.18
2019-05-02T09:20:38.928Z,29.40
2019-05-02T09:23:12.367Z,17.95
2019-05-02T09:25:43.979Z,26.52
2019-05-02T09:28:17.126Z,20.48
2019-05-02T09:30:48.908Z,17.40
2019-05-02T09:33:22.543Z,23.10
2019-05-02T09:35:53.463Z,22.90
2019-05-02T09:38:24.983Z,17.55
2019-05-02T09:41:15.397Z,16.30
2019-05-02T09:43:39.039Z,21.87
2019-05-02T09:46:12.937Z,19.07
2019-05-02T09:48:44.335Z,29.40
2019-05-02T09:51:17.329Z,32.10
2019-05-02T09:53:49.134Z,23.25
2019-05-02T09:56:21.953Z,24.07
2019-05-02T09:58:55.096Z,18.95
2019-05-02T10:01:34.454Z,33.30
2019-05-02T10:04:06.053Z,25.82
2019-05-02T10:06:37.547Z,23.00
2019-05-02T10:09:12.003Z,24.20
2019-05-02T10:11:44.333Z,19.37
2019-05-02T10:14:15.826Z,21.30
2019-05-02T10:16:47.349Z,21.35
2019-05-02T10:19:18.861Z,16.07
2019-05-02T10:21:54.289Z,19.30
2019-05-02T10:24:23.440Z,17.62
2019-05-02T10:27:03.233Z,21.05
2019-05-02T10:29:29.750Z,18.85
2019-05-02T10:32:01.783Z,27.25
2019-05-02T10:34:33.445Z,25.12
2019-05-02T10:37:04.982Z,22.85
2019-05-02T10:39:37.956Z,25.27
2019-05-02T10:42:09.445Z,17.40
2019-05-02T10:44:42.694Z,21.65
2019-05-02T10:47:14.341Z,24.30
2019-05-02T10:49:47.399Z,21.80
2019-05-02T10:52:21.682Z,22.82
2019-05-02T10:54:52.813Z,22.90
2019-05-02T10:57:24.553Z,26.40
2019-05-02T10:59:56.332Z,26.95
2019-05-02T11:02:29.394Z,20.25
2019-05-02T11:05:06.984Z,20.48
2019-05-02T11:07:38.477Z,16.30
2019-05-02T11:10:12.169Z,11.22
2019-05-02T11:12:57.222Z,16.12
2019-05-02T11:15:33.024Z,18.92
2019-05-02T11:18:04.967Z,7.55
2019-05-02T11:20:36.279Z,5.95
2019-05-02T11:23:07.636Z,11.57
2019-05-02T11:25:39.010Z,11.43
2019-05-02T11:28:12.278Z,12.88
2019-05-02T11:30:44.124Z,10.08
2019-05-02T11:33:15.499Z,84.35
2019-05-02T11:35:50.967Z,18.92
2019-05-02T11:38:25.963Z,10.03
2019-05-02T11:40:54.461Z,12.98
2019-05-02T11:43:25.751Z,19.55
2019-05-02T11:46:02.514Z,17.80
2019-05-02T11:48:31.930Z,15.90
2019-05-02T11:51:07.446Z,15.07
2019-05-02T11:53:37.492Z,13.50
2019-05-02T11:56:11.003Z,14.38
2019-05-02T11:58:48.173Z,12.37
2019-05-02T12:01:20.208Z,14.45
2019-05-02T12:03:49.481Z,11.43
2019-05-02T12:06:22.545Z,10.30
2019-05-02T12:08:54.021Z,6.67
2019-05-02T12:11:26.467Z,9.63
2019-05-02T12:13:57.810Z,4.97
2019-05-02T12:16:29.285Z,7.58
2019-05-02T12:19:09.517Z,9.48
2019-05-02T12:21:33.658Z,10.45
2019-05-02T12:24:05.039Z,8.25
2019-05-02T12:26:36.579Z,7.97
2019-05-02T12:29:07.920Z,7.30
2019-05-02T12:31:39.315Z,8.50
2019-05-02T12:34:12.032Z,6.90
2019-05-02T12:36:43.626Z,23.27
2019-05-02T12:39:14.973Z,3.50
2019-05-02T12:41:46.670Z,6.22
2019-05-02T12:44:18.246Z,13.93
2019-05-02T12:46:51.631Z,5.80
2019-05-02T12:49:27.683Z,11.83
2019-05-02T12:51:55.795Z,20.50
2019-05-02T12:54:27.141Z,11.95
2019-05-02T12:56:58.440Z,3.67
2019-05-02T12:59:29.699Z,9.98
2019-05-02T13:02:02.716Z,4.17
2019-05-02T13:04:34.016Z,5.67
2019-05-02T13:07:05.326Z,8.18
2019-05-02T13:09:36.685Z,5.40
2019-05-02T13:12:10.449Z,9.25
2019-05-02T13:14:42.334Z,14.03
2019-05-02T13:17:13.973Z,13.38
2019-05-02T13:19:55.535Z,3.45
2019-05-02T13:22:28.648Z,12.35
2019-05-02T13:25:02.425Z,12.33
2019-05-02T13:30:12.296Z,3.50
2019-05-02T13:32:48.023Z,5.58
2019-05-02T13:35:25.635Z,3.62
2019-05-02T13:37:58.619Z,3.10
2019-05-02T13:40:35.318Z,5.95
2019-05-02T13:43:06.748Z,4.08
2019-05-02T13:45:45.436Z,6.10
2019-05-02T13:48:16.781Z,3.47
2019-05-02T13:50:48.090Z,5.20
2019-05-02T13:53:19.481Z,3.65
2019-05-02T13:55:58.271Z,6.08
2019-05-02T13:58:31.233Z,22.77
2019-05-02T14:01:03.525Z,14.47
2019-05-02T14:03:34.901Z,3.90
2019-05-02T14:06:06.322Z,7.20
2019-05-02T14:08:53.437Z,7.92
2019-05-02T14:11:43.520Z,8.68
2019-05-02T14:14:15.059Z,6.87
2019-05-02T14:16:46.306Z,7.30
2019-05-02T14:19:19.794Z,9.33
2019-05-02T14:21:51.881Z,14.90
2019-05-02T14:24:23.258Z,5.80
2019-05-02T14:26:54.591Z,6.58
2019-05-02T14:29:25.866Z,5.67
2019-05-02T14:31:57.218Z,8.80
2019-05-02T14:34:33.167Z,5.42
2019-05-02T14:37:04.575Z,5.22
2019-05-02T14:39:35.943Z,6.90
2019-05-02T14:42:07.265Z,7.22
2019-05-02T14:45:03.239Z,7.75
2019-05-02T14:47:18.228Z,7.40
2019-05-02T14:49:44.856Z,7.60
2019-05-02T14:52:17.317Z,2.42
2019-05-02T14:54:48.687Z,11.75
2019-05-02T14:57:25.520Z,8.48
2019-05-02T14:59:59.370Z,8.80
2019-05-02T15:02:47.171Z,11.40
2019-05-02T15:05:19.190Z,10.60
2019-05-02T15:07:51.700Z,6.90
2019-05-02T15:10:25.544Z,14.30
2019-05-02T15:12:59.487Z,9.40
2019-05-02T15:15:33.605Z,17.60
2019-05-02T15:18:07.895Z,17.32
2019-05-02T15:20:39.493Z,25.10
2019-05-02T15:23:14.396Z,17.87
2019-05-02T15:25:47.053Z,35.25
2019-05-02T15:28:19.544Z,22.52
2019-05-02T15:31:05.080Z,14.90
2019-05-02T15:33:38.130Z,17.65
2019-05-02T15:36:11.988Z,13.75
2019-05-02T15:38:47.278Z,12.15
2019-05-02T15:41:17.865Z,14.03
2019-05-02T15:43:52.409Z,14.68
2019-05-02T15:46:28.230Z,8.95
2019-05-02T15:48:57.275Z,17.57
2019-05-02T15:51:29.933Z,13.25
2019-05-02T15:54:08.685Z,10.80
2019-05-02T15:57:00.161Z,12.90
2019-05-02T15:59:42.335Z,11.03
2019-05-02T16:02:17.706Z,9.83
2019-05-02T16:04:48.011Z,16.02
2019-05-02T16:07:19.408Z,10.65
2019-05-02T16:09:56.320Z,13.43
2019-05-02T16:12:27.243Z,15.45
2019-05-02T16:14:57.865Z,8.13
2019-05-02T16:17:29.250Z,15.13
2019-05-02T16:20:08.957Z,9.83
2019-05-02T16:22:38.180Z,8.48
2019-05-02T16:25:08.993Z,9.85
2019-05-02T16:27:45.083Z,8.55
2019-05-02T16:30:22.159Z,9.75
2019-05-02T16:32:54.894Z,17.65
2019-05-02T16:35:27.931Z,7.67
2019-05-02T16:37:59.328Z,26.65
2019-05-02T16:40:32.771Z,12.53
2019-05-02T16:43:03.799Z,17.73
2019-05-02T16:45:35.261Z,12.13
2019-05-02T16:48:06.853Z,12.65
2019-05-02T16:50:39.251Z,12.90
2019-05-02T16:53:11.786Z,16.45
2019-05-02T16:55:43.620Z,9.30
2019-05-02T16:58:15.212Z,9.45
2019-05-02T17:00:46.524Z,11.55
2019-05-02T17:03:22.723Z,11.08
2019-05-02T17:05:54.188Z,11.68
2019-05-02T17:08:37.808Z,11.97
2019-05-02T17:11:14.121Z,6.00
2019-05-02T17:13:43.853Z,6.05
2019-05-02T17:16:17.069Z,5.30
2019-05-02T17:18:55.064Z,6.40
2019-05-02T17:21:22.280Z,6.22
2019-05-02T17:23:53.671Z,6.15
2019-05-02T17:26:25.023Z,8.65
2019-05-02T17:28:56.367Z,7.58
2019-05-02T17:31:27.759Z,14.98
2019-05-02T17:33:59.139Z,13.15
2019-05-02T17:36:32.466Z,8.50
2019-05-02T17:39:08.110Z,11.30
2019-05-02T17:41:45.615Z,12.33
2019-05-02T17:44:18.351Z,11.30
2019-05-02T17:46:57.964Z,11.05
2019-05-02T17:49:30.835Z,15.45
2019-05-02T17:52:19.749Z,14.38
2019-05-02T17:55:21.429Z,14.78
2019-05-02T18:01:33.394Z,14.28
2019-05-02T18:06:57.428Z,15.40
2019-05-02T18:09:35.155Z,16.48
2019-05-02T18:12:07.264Z,28.57
2019-05-02T18:14:41.970Z,18.90
2019-05-02T18:17:15.212Z,23.38
2019-05-02T18:19:46.672Z,23.15
2019-05-02T18:22:24.011Z,23.27
2019-05-02T18:24:52.679Z,27.55
2019-05-02T18:27:24.332Z,24.12
2019-05-02T18:29:55.912Z,30.37
2019-05-02T18:32:28.658Z,26.97
2019-05-02T18:35:04.206Z,25.85
2019-05-02T18:37:37.271Z,37.33
2019-05-02T18:40:11.761Z,24.72
2019-05-02T18:42:43.080Z,37.85
2019-05-02T18:45:25.387Z,29.95
2019-05-02T18:48:01.078Z,34.05
2019-05-02T18:50:28.859Z,26.42
2019-05-02T18:53:05.469Z,32.08
2019-05-02T18:55:37.322Z,32.50
2019-05-02T18:58:09.301Z,38.20
2019-05-02T19:00:42.041Z,28.10
2019-05-02T19:03:17.084Z,24.77
2019-05-02T19:05:51.432Z,28.17
2019-05-02T19:08:29.010Z,30.32
2019-05-02T19:11:04.359Z,33.28
2019-05-02T19:13:30.028Z,18.05
2019-05-02T19:16:02.054Z,10.98
2019-05-02T19:18:34.530Z,10.50
2019-05-02T19:21:06.130Z,11.95
2019-05-02T19:23:37.557Z,16.55
2019-05-02T19:26:10.442Z,13.53
2019-05-02T19:28:44.014Z,14.15
2019-05-02T19:31:15.682Z,14.38
2019-05-02T19:33:47.033Z,14.33
2019-05-02T19:36:24.413Z,10.95
2019-05-02T19:38:52.596Z,11.10
2019-05-02T19:41:32.074Z,10.18
2019-05-02T19:44:06.241Z,11.30
2019-05-02T19:46:39.036Z,9.77
2019-05-02T19:49:12.404Z,11.45
2019-05-02T19:51:43.655Z,11.40
2019-05-02T19:54:15.080Z,14.53
2019-05-02T19:56:47.666Z,14.35
2019-05-02T19:59:22.496Z,13.43
2019-05-02T20:01:52.367Z,14.73
2019-05-02T20:04:23.745Z,10.82
2019-05-02T20:06:55.088Z,15.08
2019-05-02T20:09:26.454Z,13.65
2019-05-02T20:11:57.814Z,13.75
2019-05-02T20:14:29.162Z,14.83
2019-05-02T20:17:02.268Z,17.50
2019-05-02T20:19:35.375Z,15.43
2019-05-02T20:22:08.322Z,16.48
2019-05-02T20:24:59.896Z,25.90
2019-05-02T20:27:28.400Z,27.45
2019-05-02T20:29:59.952Z,30.35
2019-05-02T20:32:32.285Z,22.22
2019-05-02T20:35:04.640Z,18.73
2019-05-02T20:37:36.124Z,17.92
2019-05-02T20:40:07.655Z,19.10
2019-05-02T20:42:39.098Z,14.13
2019-05-02T20:45:11.647Z,15.20
2019-05-02T20:47:43.121Z,16.35
2019-05-02T20:50:15.084Z,12.40
2019-05-02T20:52:47.378Z,15.90
2019-05-02T20:55:18.778Z,14.90
2019-05-02T20:57:50.202Z,15.43
2019-05-02T21:00:32.202Z,16.42
2019-05-02T21:03:03.336Z,18.15
2019-05-02T21:05:36.365Z,11.85
2019-05-02T21:08:18.397Z,12.75
2019-05-02T21:10:54.252Z,16.10
2019-05-02T21:13:26.569Z,12.23
2019-05-02T21:15:57.955Z,10.50
2019-05-02T21:18:29.226Z,13.68
2019-05-02T21:21:00.494Z,15.23
2019-05-02T21:23:43.886Z,15.95
2019-05-02T21:26:05.876Z,16.12
2019-05-02T21:28:37.152Z,16.85
2019-05-02T21:31:09.590Z,18.15
2019-05-02T21:33:42.702Z,18.73
2019-05-02T21:36:13.965Z,15.45
2019-05-02T21:38:45.310Z,16.37
2019-05-02T21:41:16.593Z,14.70
2019-05-02T21:43:47.830Z,15.65
2019-05-02T21:46:22.176Z,20.15
2019-05-02T21:48:55.657Z,17.40
2019-05-02T21:51:37.587Z,15.98
2019-05-02T21:54:13.285Z,14.78
2019-05-02T21:56:48.865Z,19.42
2019-05-02T21:59:22.344Z,20.88
2019-05-02T22:01:55.098Z,16.00
2019-05-02T22:04:26.406Z,21.07
2019-05-02T22:06:57.729Z,17.35
2019-05-02T22:09:29.155Z,19.50
2019-05-02T22:12:00.597Z,18.77
2019-05-02T22:14:32.843Z,14.20
2019-05-02T22:17:04.409Z,16.27
2019-05-02T22:19:35.771Z,16.55
2019-05-02T22:22:07.089Z,14.95
2019-05-02T22:24:38.425Z,15.08
2019-05-02T22:27:09.792Z,16.45
2019-05-02T22:29:42.913Z,17.50
2019-05-02T22:32:14.061Z,14.85
2019-05-02T22:34:45.798Z,16.67
2019-05-02T22:37:18.767Z,21.00
2019-05-02T22:39:57.632Z,21.97
2019-05-02T22:42:29.065Z,16.65
2019-05-02T22:45:01.610Z,21.65
2019-05-02T22:47:34.477Z,25.90
2019-05-02T22:50:07.086Z,20.82
2019-05-02T22:52:38.535Z,26.05
2019-05-02T22:55:11.859Z,27.37
2019-05-02T22:57:43.954Z,23.70
2019-05-02T23:00:15.730Z,24.47
2019-05-02T23:02:47.174Z,22.55
2019-05-02T23:05:18.685Z,18.10
2019-05-02T23:07:50.047Z,18.07
2019-05-02T23:10:22.088Z,20.65
2019-05-02T23:12:53.559Z,21.37
2019-05-02T23:15:24.888Z,38.30
2019-05-02T23:17:58.352Z,28.77
2019-05-02T23:20:29.829Z,33.13
2019-05-02T23:23:01.906Z,37.05
2019-05-02T23:25:39.082Z,33.48
2019-05-02T23:28:14.647Z,28.23
2019-05-02T23:30:46.023Z,25.02
2019-05-02T23:33:17.526Z,22.40
2019-05-02T23:35:48.983Z,23.95
2019-05-02T23:38:21.766Z,30.35
2019-05-02T23:40:53.420Z,38.98
2019-05-02T23:43:24.809Z,36.35
2019-05-02T23:45:56.254Z,37.40
2019-05-02T23:48:27.727Z,38.58
2019-05-02T23:51:00.075Z,30.85
2019-05-02T23:53:31.655Z,24.67
2019-05-02T23:56:03.004Z,21.37
2019-05-02T23:58:34.420Z,22.45
